sensor_id;sensor_type;location;lat;lon;timestamp;pressure;altitude;pressure_sealevel;temperature;humidity
46836;BME280;32573;51.290;6.926;2024-03-22T00:02:16;100803.06;;;12.24;100.00
46836;BME280;32573;51.290;6.926;2024-03-22T00:04:44;100792.56;;;12.24;100.00
46836;BME280;32573;51.290;6.926;2024-03-22T00:07:11;100791.72;;;12.25;100.00
46836;BME280;32573;51.290;6.926;2024-03-22T00:09:38;100797.81;;;12.24;100.00
46836;BME280;32573;51.290;6.926;2024-03-22T00:12:05;100792.56;;;12.24;100.00
46836;BME280;32573;51.290;6.926;2024-03-22T00:14:33;100794.34;;;12.25;100.00
46836;BME280;32573;51.290;6.926;2024-03-22T00:17:01;100785.66;;;12.26;100.00
46836;BME280;32573;51.290;6.926;2024-03-22T00:19:29;100783.84;;;12.25;100.00
46836;BME280;32573;51.290;6.926;2024-03-22T00:21:55;100786.53;;;12.27;100.00
46836;BME280;32573;51.290;6.926;2024-03-22T00:24:23;100778.66;;;12.27;100.00
46836;BME280;32573;51.290;6.926;2024-03-22T00:26:49;100769.91;;;12.26;100.00
46836;BME280;32573;51.290;6.926;2024-03-22T00:29:17;100774.34;;;12.29;100.00
46836;BME280;32573;51.290;6.926;2024-03-22T00:31:43;100770.84;;;12.28;100.00
46836;BME280;32573;51.290;6.926;2024-03-22T00:34:12;100762.97;;;12.28;100.00
46836;BME280;32573;51.290;6.926;2024-03-22T00:36:39;100756.84;;;12.29;100.00
46836;BME280;32573;51.290;6.926;2024-03-22T00:39:06;100756.03;;;12.30;100.00
46836;BME280;32573;51.290;6.926;2024-03-22T00:41:35;100756.03;;;12.30;100.00
46836;BME280;32573;51.290;6.926;2024-03-22T00:44:02;100753.44;;;12.32;100.00
46836;BME280;32573;51.290;6.926;2024-03-22T00:46:29;100747.31;;;12.32;100.00
46836;BME280;32573;51.290;6.926;2024-03-22T00:48:57;100742.94;;;12.32;100.00
46836;BME280;32573;51.290;6.926;2024-03-22T00:51:26;100736.84;;;12.33;100.00
46836;BME280;32573;51.290;6.926;2024-03-22T00:53:54;100731.63;;;12.33;100.00
46836;BME280;32573;51.290;6.926;2024-03-22T00:56:21;100727.19;;;12.32;100.00
46836;BME280;32573;51.290;6.926;2024-03-22T00:58:49;100729.00;;;12.33;100.00
46836;BME280;32573;51.290;6.926;2024-03-22T01:01:15;100720.19;;;12.33;100.00
46836;BME280;32573;51.290;6.926;2024-03-22T01:03:43;100727.28;;;12.35;100.00
46836;BME280;32573;51.290;6.926;2024-03-22T01:06:09;100726.38;;;12.35;100.00
46836;BME280;32573;51.290;6.926;2024-03-22T01:08:38;100715.88;;;12.35;100.00
46836;BME280;32573;51.290;6.926;2024-03-22T01:11:05;100714.13;;;12.34;100.00
46836;BME280;32573;51.290;6.926;2024-03-22T01:13:32;100704.50;;;12.34;100.00
46836;BME280;32573;51.290;6.926;2024-03-22T01:15:59;100708.88;;;12.34;100.00
46836;BME280;32573;51.290;6.926;2024-03-22T01:18:26;100708.88;;;12.34;100.00
46836;BME280;32573;51.290;6.926;2024-03-22T01:20:53;100702.75;;;12.33;100.00
46836;BME280;32573;51.290;6.926;2024-03-22T01:23:20;100703.63;;;12.34;100.00
46836;BME280;32573;51.290;6.926;2024-03-22T01:25:48;100701.81;;;12.33;100.00
46836;BME280;32573;51.290;6.926;2024-03-22T01:28:16;100698.38;;;12.34;100.00
46836;BME280;32573;51.290;6.926;2024-03-22T01:30:43;100689.59;;;12.33;100.00
46836;BME280;32573;51.290;6.926;2024-03-22T01:33:10;100694.00;;;12.34;100.00
46836;BME280;32573;51.290;6.926;2024-03-22T01:35:37;100693.13;;;12.34;100.00
46836;BME280;32573;51.290;6.926;2024-03-22T01:38:03;100687.88;;;12.34;100.00
46836;BME280;32573;51.290;6.926;2024-03-22T01:40:31;100684.38;;;12.35;100.00
46836;BME280;32573;51.290;6.926;2024-03-22T01:43:00;100681.72;;;12.33;100.00
46836;BME280;32573;51.290;6.926;2024-03-22T01:45:31;100681.72;;;12.33;100.00
46836;BME280;32573;51.290;6.926;2024-03-22T01:47:58;100668.56;;;12.32;100.00
46836;BME280;32573;51.290;6.926;2024-03-22T01:50:27;100668.50;;;12.30;100.00
46836;BME280;32573;51.290;6.926;2024-03-22T01:52:54;100662.38;;;12.29;100.00
46836;BME280;32573;51.290;6.926;2024-03-22T01:55:21;100657.13;;;12.29;100.00
46836;BME280;32573;51.290;6.926;2024-03-22T01:57:49;100662.38;;;12.29;100.00
46836;BME280;32573;51.290;6.926;2024-03-22T02:00:23;100654.50;;;12.29;100.00
46836;BME280;32573;51.290;6.926;2024-03-22T02:02:49;100656.22;;;12.29;100.00
46836;BME280;32573;51.290;6.926;2024-03-22T02:05:18;100656.16;;;12.27;100.00
46836;BME280;32573;51.290;6.926;2024-03-22T02:07:45;100653.53;;;12.27;100.00
46836;BME280;32573;51.290;6.926;2024-03-22T02:10:13;100640.34;;;12.24;100.00
46836;BME280;32573;51.290;6.926;2024-03-22T02:12:40;100629.84;;;12.24;100.00
46836;BME280;32573;51.290;6.926;2024-03-22T02:15:09;100625.47;;;12.25;100.00
46836;BME280;32573;51.290;6.926;2024-03-22T02:17:37;100619.34;;;12.24;100.00
46836;BME280;32573;51.290;6.926;2024-03-22T02:20:05;100622.03;;;12.26;100.00
46836;BME280;32573;51.290;6.926;2024-03-22T02:22:32;100614.16;;;12.26;100.00
46836;BME280;32573;51.290;6.926;2024-03-22T02:25:01;100615.91;;;12.27;100.00
46836;BME280;32573;51.290;6.926;2024-03-22T02:27:28;100608.94;;;12.27;100.00
46836;BME280;32573;51.290;6.926;2024-03-22T02:29:55;100610.72;;;12.28;100.00
46836;BME280;32573;51.290;6.926;2024-03-22T02:32:22;100605.47;;;12.28;100.00
46836;BME280;32573;51.290;6.926;2024-03-22T02:34:49;100609.03;;;12.30;100.00
46836;BME280;32573;51.290;6.926;2024-03-22T02:37:16;100602.94;;;12.32;100.00
46836;BME280;32573;51.290;6.926;2024-03-22T02:39:43;100596.78;;;12.31;100.00
46836;BME280;32573;51.290;6.926;2024-03-22T02:42:11;100611.66;;;12.30;100.00
46836;BME280;32573;51.290;6.926;2024-03-22T02:44:39;100607.19;;;12.28;100.00
46836;BME280;32573;51.290;6.926;2024-03-22T02:47:09;100594.97;;;12.28;100.00
46836;BME280;32573;51.290;6.926;2024-03-22T02:49:38;100594.97;;;12.28;100.00
46836;BME280;32573;51.290;6.926;2024-03-22T02:52:05;100600.22;;;12.28;100.00
46836;BME280;32573;51.290;6.926;2024-03-22T02:54:32;100592.28;;;12.27;100.00
46836;BME280;32573;51.290;6.926;2024-03-22T02:57:01;100590.53;;;12.26;100.00
46836;BME280;32573;51.290;6.926;2024-03-22T02:59:30;100584.38;;;12.25;100.00
46836;BME280;32573;51.290;6.926;2024-03-22T03:01:57;100584.38;;;12.25;100.00
46836;BME280;32573;51.290;6.926;2024-03-22T03:04:24;100584.38;;;12.25;100.00
46836;BME280;32573;51.290;6.926;2024-03-22T03:06:50;100580.03;;;12.26;100.00
46836;BME280;32573;51.290;6.926;2024-03-22T03:09:18;100578.22;;;12.25;100.00
46836;BME280;32573;51.290;6.926;2024-03-22T03:11:45;100567.75;;;12.25;100.00
46836;BME280;32573;51.290;6.926;2024-03-22T03:14:12;100563.38;;;12.25;100.00
46836;BME280;32573;51.290;6.926;2024-03-22T03:16:40;100556.34;;;12.24;100.00
46836;BME280;32573;51.290;6.926;2024-03-22T03:19:08;100557.22;;;12.23;100.00
46836;BME280;32573;51.290;6.926;2024-03-22T03:21:34;100554.59;;;12.23;100.00
46836;BME280;32573;51.290;6.926;2024-03-22T03:24:02;100552.78;;;12.22;100.00
46836;BME280;32573;51.290;6.926;2024-03-22T03:26:28;100553.66;;;12.21;100.00
46836;BME280;32573;51.290;6.926;2024-03-22T03:28:56;100547.53;;;12.22;100.00
46836;BME280;32573;51.290;6.926;2024-03-22T03:31:22;100548.34;;;12.20;100.00
46836;BME280;32573;51.290;6.926;2024-03-22T03:33:51;100542.22;;;12.19;100.00
46836;BME280;32573;51.290;6.926;2024-03-22T03:36:17;100545.72;;;12.18;100.00
46836;BME280;32573;51.290;6.926;2024-03-22T03:38:45;100545.72;;;12.18;100.00
46836;BME280;32573;51.290;6.926;2024-03-22T03:41:11;100541.28;;;12.17;100.00
46836;BME280;32573;51.290;6.926;2024-03-22T03:43:39;100550.00;;;12.16;100.00
46836;BME280;32573;51.290;6.926;2024-03-22T03:46:05;100542.94;;;12.14;100.00
46836;BME280;32573;51.290;6.926;2024-03-22T03:48:33;100533.25;;;12.11;100.00
46836;BME280;32573;51.290;6.926;2024-03-22T03:51:01;100527.13;;;12.11;100.00
46836;BME280;32573;51.290;6.926;2024-03-22T03:53:29;100533.16;;;12.08;100.00
46836;BME280;32573;51.290;6.926;2024-03-22T03:55:56;100532.25;;;12.06;100.00
46836;BME280;32573;51.290;6.926;2024-03-22T03:58:23;100526.06;;;12.05;100.00
46836;BME280;32573;51.290;6.926;2024-03-22T04:00:50;100515.56;;;12.04;100.00
46836;BME280;32573;51.290;6.926;2024-03-22T04:03:17;100517.25;;;12.02;100.00
46836;BME280;32573;51.290;6.926;2024-03-22T04:05:44;100510.25;;;12.01;100.00
46836;BME280;32573;51.290;6.926;2024-03-22T04:08:13;100507.56;;;11.99;100.00
46836;BME280;32573;51.290;6.926;2024-03-22T04:10:39;100500.56;;;11.98;100.00
46836;BME280;32573;51.290;6.926;2024-03-22T04:13:07;100502.25;;;11.98;100.00
46836;BME280;32573;51.290;6.926;2024-03-22T04:15:35;100485.63;;;11.96;100.00
46836;BME280;32573;51.290;6.926;2024-03-22T04:18:02;100486.50;;;11.96;100.00
46836;BME280;32573;51.290;6.926;2024-03-22T04:20:29;100483.81;;;11.95;100.00
46836;BME280;32573;51.290;6.926;2024-03-22T04:22:56;100488.19;;;11.94;100.00
46836;BME280;32573;51.290;6.926;2024-03-22T04:25:24;100477.63;;;11.93;100.00
46836;BME280;32573;51.290;6.926;2024-03-22T04:27:52;100473.25;;;11.92;100.00
46836;BME280;32573;51.290;6.926;2024-03-22T04:30:18;100470.63;;;11.92;100.00
46836;BME280;32573;51.290;6.926;2024-03-22T04:32:46;100466.25;;;11.91;100.00
46836;BME280;32573;51.290;6.926;2024-03-22T04:35:12;100465.31;;;11.90;100.00
46836;BME280;32573;51.290;6.926;2024-03-22T04:37:40;100462.69;;;11.90;100.00
46836;BME280;32573;51.290;6.926;2024-03-22T04:40:08;100463.63;;;11.91;100.00
46836;BME280;32573;51.290;6.926;2024-03-22T04:42:38;100453.94;;;11.90;100.00
46836;BME280;32573;51.290;6.926;2024-03-22T04:45:06;100446.09;;;11.90;100.00
46836;BME280;32573;51.290;6.926;2024-03-22T04:47:34;100449.59;;;11.90;100.00
46836;BME280;32573;51.290;6.926;2024-03-22T04:50:00;100442.63;;;11.91;100.00
46836;BME280;32573;51.290;6.926;2024-03-22T04:52:27;100444.34;;;11.90;100.00
46836;BME280;32573;51.290;6.926;2024-03-22T04:54:54;100437.41;;;11.92;100.00
46836;BME280;32573;51.290;6.926;2024-03-22T04:57:21;100447.00;;;11.92;100.00
46836;BME280;32573;51.290;6.926;2024-03-22T04:59:50;100446.16;;;11.93;100.00
46836;BME280;32573;51.290;6.926;2024-03-22T05:02:16;100440.09;;;11.94;100.00
46836;BME280;32573;51.290;6.926;2024-03-22T05:04:44;100441.84;;;11.95;100.00
46836;BME280;32573;51.290;6.926;2024-03-22T05:07:11;100448.88;;;11.96;100.00
46836;BME280;32573;51.290;6.926;2024-03-22T05:09:38;100438.41;;;11.96;100.00
46836;BME280;32573;51.290;6.926;2024-03-22T05:12:04;100430.53;;;11.96;100.00
46836;BME280;32573;51.290;6.926;2024-03-22T05:14:32;100441.91;;;11.98;100.00
46836;BME280;32573;51.290;6.926;2024-03-22T05:17:00;100434.06;;;11.98;100.00
46836;BME280;32573;51.290;6.926;2024-03-22T05:19:27;100429.66;;;11.97;100.00
46836;BME280;32573;51.290;6.926;2024-03-22T05:21:54;100432.28;;;11.97;100.00
46836;BME280;32573;51.290;6.926;2024-03-22T05:24:21;100421.84;;;11.98;100.00
46836;BME280;32573;51.290;6.926;2024-03-22T05:26:48;100426.19;;;11.98;100.00
46836;BME280;32573;51.290;6.926;2024-03-22T05:29:15;100415.75;;;11.99;100.00
46836;BME280;32573;51.290;6.926;2024-03-22T05:31:46;100423.59;;;11.99;100.00
46836;BME280;32573;51.290;6.926;2024-03-22T05:34:15;100418.38;;;11.99;100.00
46836;BME280;32573;51.290;6.926;2024-03-22T05:36:42;100428.91;;;12.01;100.00
46836;BME280;32573;51.290;6.926;2024-03-22T05:39:10;100427.16;;;12.01;100.00
46836;BME280;32573;51.290;6.926;2024-03-22T05:41:40;100429.78;;;12.01;100.00
46836;BME280;32573;51.290;6.926;2024-03-22T05:44:08;100426.28;;;12.01;100.00
46836;BME280;32573;51.290;6.926;2024-03-22T05:46:35;100425.44;;;12.02;100.00
46836;BME280;32573;51.290;6.926;2024-03-22T05:49:02;100426.28;;;12.01;100.00
46836;BME280;32573;51.290;6.926;2024-03-22T05:51:34;100426.28;;;12.01;100.00
46836;BME280;32573;51.290;6.926;2024-03-22T05:54:02;100424.56;;;12.03;100.00
46836;BME280;32573;51.290;6.926;2024-03-22T05:56:29;100422.81;;;12.02;100.00
46836;BME280;32573;51.290;6.926;2024-03-22T05:58:59;100419.31;;;12.03;100.00
46836;BME280;32573;51.290;6.926;2024-03-22T06:01:26;100426.34;;;12.04;100.00
46836;BME280;32573;51.290;6.926;2024-03-22T06:03:55;100422.84;;;12.03;100.00
46836;BME280;32573;51.290;6.926;2024-03-22T06:06:26;100419.31;;;12.03;100.00
46836;BME280;32573;51.290;6.926;2024-03-22T06:08:59;100424.56;;;12.03;100.00
46836;BME280;32573;51.290;6.926;2024-03-22T06:11:33;100427.19;;;12.03;100.00
46836;BME280;32573;51.290;6.926;2024-03-22T06:14:01;100423.72;;;12.04;100.00
46836;BME280;32573;51.290;6.926;2024-03-22T06:16:28;100422.88;;;12.05;100.00
46836;BME280;32573;51.290;6.926;2024-03-22T06:18:55;100414.19;;;12.06;100.00
46836;BME280;32573;51.290;6.926;2024-03-22T06:21:23;100399.31;;;12.06;100.00
46836;BME280;32573;51.290;6.926;2024-03-22T06:23:51;100397.63;;;12.08;100.00
46836;BME280;32573;51.290;6.926;2024-03-22T06:26:21;100397.69;;;12.12;100.00
46836;BME280;32573;51.290;6.926;2024-03-22T06:28:48;100403.88;;;12.14;100.00
46836;BME280;32573;51.290;6.926;2024-03-22T06:31:16;100403.88;;;12.15;100.00
46836;BME280;32573;51.290;6.926;2024-03-22T06:33:43;100396.94;;;12.17;100.00
46836;BME280;32573;51.290;6.926;2024-03-22T06:36:10;100394.38;;;12.19;100.00
46836;BME280;32573;51.290;6.926;2024-03-22T06:38:37;100399.69;;;12.22;100.00
46836;BME280;32573;51.290;6.926;2024-03-22T06:41:05;100398.00;;;12.24;100.00
46836;BME280;32573;51.290;6.926;2024-03-22T06:43:33;100391.88;;;12.25;100.00
46836;BME280;32573;51.290;6.926;2024-03-22T06:46:02;100388.44;;;12.27;100.00
46836;BME280;32573;51.290;6.926;2024-03-22T06:48:29;100386.75;;;12.29;100.00
46836;BME280;32573;51.290;6.926;2024-03-22T06:50:57;100387.69;;;12.32;100.00
46836;BME280;32573;51.290;6.926;2024-03-22T06:53:23;100390.38;;;12.33;100.00
46836;BME280;32573;51.290;6.926;2024-03-22T06:55:51;100388.63;;;12.35;100.00
46836;BME280;32573;51.290;6.926;2024-03-22T06:58:18;100378.19;;;12.37;100.00
46836;BME280;32573;51.290;6.926;2024-03-22T07:00:47;100381.75;;;12.39;100.00
46836;BME280;32573;51.290;6.926;2024-03-22T07:03:14;100380.03;;;12.41;100.00
46836;BME280;32573;51.290;6.926;2024-03-22T07:05:43;100379.22;;;12.43;100.00
46836;BME280;32573;51.290;6.926;2024-03-22T07:08:10;100375.75;;;12.44;100.00
46836;BME280;32573;51.290;6.926;2024-03-22T07:10:38;100374.06;;;12.48;100.00
46836;BME280;32573;51.290;6.926;2024-03-22T07:13:06;100376.72;;;12.49;100.00
46836;BME280;32573;51.290;6.926;2024-03-22T07:15:36;100368.03;;;12.52;100.00
46836;BME280;32573;51.290;6.926;2024-03-22T07:18:06;100378.59;;;12.55;100.00
46836;BME280;32573;51.290;6.926;2024-03-22T07:20:38;100376.03;;;12.57;100.00
46836;BME280;32573;51.290;6.926;2024-03-22T07:23:08;100369.97;;;12.59;100.00
46836;BME280;32573;51.290;6.926;2024-03-22T07:25:36;100377.06;;;12.63;100.00
46836;BME280;32573;51.290;6.926;2024-03-22T07:28:06;100373.63;;;12.66;100.00
46836;BME280;32573;51.290;6.926;2024-03-22T07:30:34;100379.00;;;12.70;100.00
46836;BME280;32573;51.290;6.926;2024-03-22T07:33:06;100376.44;;;12.73;100.00
46836;BME280;32573;51.290;6.926;2024-03-22T07:35:38;100372.09;;;12.77;100.00
46836;BME280;32573;51.290;6.926;2024-03-22T07:38:04;100372.16;;;12.80;100.00
46836;BME280;32573;51.290;6.926;2024-03-22T07:40:35;100373.22;;;12.87;100.00
46836;BME280;32573;51.290;6.926;2024-03-22T07:43:02;100374.19;;;12.92;100.00
46836;BME280;32573;51.290;6.926;2024-03-22T07:45:36;100377.81;;;12.97;100.00
46836;BME280;32573;51.290;6.926;2024-03-22T07:48:08;100367.44;;;13.03;100.00
46836;BME280;32573;51.290;6.926;2024-03-22T07:50:36;100374.50;;;13.07;100.00
46836;BME280;32573;51.290;6.926;2024-03-22T07:53:03;100374.66;;;13.13;100.00
46836;BME280;32573;51.290;6.926;2024-03-22T07:55:31;100368.63;;;13.19;100.00
46836;BME280;32573;51.290;6.926;2024-03-22T07:57:59;100370.50;;;13.25;100.00
46836;BME280;32573;51.290;6.926;2024-03-22T08:00:28;100355.72;;;13.30;100.00
46836;BME280;32573;51.290;6.926;2024-03-22T08:02:55;100343.50;;;13.32;100.00
46836;BME280;32573;51.290;6.926;2024-03-22T08:05:24;100375.19;;;13.38;100.00
46836;BME280;32573;51.290;6.926;2024-03-22T08:07:51;100348.97;;;13.41;100.00
46836;BME280;32573;51.290;6.926;2024-03-22T08:10:19;100351.63;;;13.44;100.00
46836;BME280;32573;51.290;6.926;2024-03-22T08:12:46;100345.59;;;13.48;100.00
46836;BME280;32573;51.290;6.926;2024-03-22T08:15:14;100349.16;;;13.52;100.00
46836;BME280;32573;51.290;6.926;2024-03-22T08:17:41;100343.09;;;13.56;100.00
46836;BME280;32573;51.290;6.926;2024-03-22T08:20:09;100355.44;;;13.58;100.00
46836;BME280;32573;51.290;6.926;2024-03-22T08:22:37;100349.34;;;13.61;100.00
46836;BME280;32573;51.290;6.926;2024-03-22T08:25:06;100353.75;;;13.64;100.00
46836;BME280;32573;51.290;6.926;2024-03-22T08:27:37;100352.94;;;13.68;100.00
46836;BME280;32573;51.290;6.926;2024-03-22T08:30:09;100348.63;;;13.71;100.00
46836;BME280;32573;51.290;6.926;2024-03-22T08:32:37;100348.69;;;13.74;100.00
46836;BME280;32573;51.290;6.926;2024-03-22T08:35:06;100350.53;;;13.80;100.00
46836;BME280;32573;51.290;6.926;2024-03-22T08:37:37;100354.13;;;13.84;100.00
46836;BME280;32573;51.290;6.926;2024-03-22T08:40:09;100351.50;;;13.85;100.00
46836;BME280;32573;51.290;6.926;2024-03-22T08:42:39;100348.03;;;13.86;100.00
46836;BME280;32573;51.290;6.926;2024-03-22T08:45:09;100344.56;;;13.89;100.00
46836;BME280;32573;51.290;6.926;2024-03-22T08:47:38;100336.69;;;13.90;100.00
46836;BME280;32573;51.290;6.926;2024-03-22T08:50:08;100332.34;;;13.92;100.00
46836;BME280;32573;51.290;6.926;2024-03-22T08:52:39;100342.94;;;13.97;100.00
46836;BME280;32573;51.290;6.926;2024-03-22T08:55:07;100329.81;;;13.98;100.00
46836;BME280;32573;51.290;6.926;2024-03-22T08:57:35;100339.50;;;14.02;100.00
46836;BME280;32573;51.290;6.926;2024-03-22T09:00:04;100330.78;;;14.03;100.00
46836;BME280;32573;51.290;6.926;2024-03-22T09:02:34;100336.09;;;14.07;100.00
46836;BME280;32573;51.290;6.926;2024-03-22T09:05:02;100338.75;;;14.10;100.00
46836;BME280;32573;51.290;6.926;2024-03-22T09:07:28;100341.41;;;14.10;100.00
46836;BME280;32573;51.290;6.926;2024-03-22T09:09:58;100329.97;;;14.09;100.00
46836;BME280;32573;51.290;6.926;2024-03-22T09:12:26;100327.41;;;14.11;100.00
46836;BME280;32573;51.290;6.926;2024-03-22T09:14:54;100316.88;;;14.11;100.00
46836;BME280;32573;51.290;6.926;2024-03-22T09:17:21;100324.75;;;14.12;100.00
46836;BME280;32573;51.290;6.926;2024-03-22T09:19:51;100327.44;;;14.14;100.00
46836;BME280;32573;51.290;6.926;2024-03-22T09:22:18;100317.81;;;14.16;100.00
46836;BME280;32573;51.290;6.926;2024-03-22T09:24:48;100316.94;;;14.17;100.00
46836;BME280;32573;51.290;6.926;2024-03-22T09:27:18;100310.84;;;14.19;100.00
46836;BME280;32573;51.290;6.926;2024-03-22T09:29:57;100313.56;;;14.24;100.00
46836;BME280;32573;51.290;6.926;2024-03-22T09:32:24;100307.47;;;14.28;100.00
46836;BME280;32573;51.290;6.926;2024-03-22T09:34:55;100311.91;;;14.32;100.00
46836;BME280;32573;51.290;6.926;2024-03-22T09:37:23;100301.44;;;14.37;100.00
46836;BME280;32573;51.290;6.926;2024-03-22T09:39:50;100298.84;;;14.40;100.00
46836;BME280;32573;51.290;6.926;2024-03-22T09:42:22;100294.53;;;14.43;100.00
46836;BME280;32573;51.290;6.926;2024-03-22T09:44:56;100292.84;;;14.49;100.00
46836;BME280;32573;51.290;6.926;2024-03-22T09:47:27;100296.41;;;14.52;100.00
46836;BME280;32573;51.290;6.926;2024-03-22T09:49:56;100285.94;;;14.54;100.00
46836;BME280;32573;51.290;6.926;2024-03-22T09:52:25;100290.34;;;14.56;100.00
46836;BME280;32573;51.290;6.926;2024-03-22T09:54:53;100286.88;;;14.59;100.00
46836;BME280;32573;51.290;6.926;2024-03-22T09:57:25;100294.81;;;14.62;100.00
46836;BME280;32573;51.290;6.926;2024-03-22T09:59:54;100284.28;;;14.62;100.00
46836;BME280;32573;51.290;6.926;2024-03-22T10:02:22;100276.41;;;14.63;100.00
46836;BME280;32573;51.290;6.926;2024-03-22T10:04:56;100279.91;;;14.64;100.00
46836;BME280;32573;51.290;6.926;2024-03-22T10:07:25;100288.72;;;14.66;100.00
46836;BME280;32573;51.290;6.926;2024-03-22T10:09:57;100271.16;;;14.66;100.00
46836;BME280;32573;51.290;6.926;2024-03-22T10:12:25;100277.34;;;14.70;100.00
46836;BME280;32573;51.290;6.926;2024-03-22T10:14:53;100261.56;;;14.72;100.00
46836;BME280;32573;51.290;6.926;2024-03-22T10:17:20;100264.22;;;14.75;100.00
46836;BME280;32573;51.290;6.926;2024-03-22T10:19:51;100266.91;;;14.76;100.00
46836;BME280;32573;51.290;6.926;2024-03-22T10:22:18;100262.53;;;14.78;100.00
46836;BME280;32573;51.290;6.926;2024-03-22T10:24:46;100261.69;;;14.82;100.00
46836;BME280;32573;51.290;6.926;2024-03-22T10:27:13;100254.69;;;14.83;100.00
46836;BME280;32573;51.290;6.926;2024-03-22T10:29:43;100254.69;;;14.83;100.00
46836;BME280;32573;51.290;6.926;2024-03-22T10:32:10;100246.78;;;14.84;100.00
46836;BME280;32573;51.290;6.926;2024-03-22T10:34:41;100249.41;;;14.84;100.00
46836;BME280;32573;51.290;6.926;2024-03-22T10:37:12;100238.88;;;14.84;100.00
46836;BME280;32573;51.290;6.926;2024-03-22T10:39:42;100236.25;;;14.84;100.00
46836;BME280;32573;51.290;6.926;2024-03-22T10:42:14;100240.63;;;14.84;100.00
46836;BME280;32573;51.290;6.926;2024-03-22T10:44:44;100235.41;;;14.85;100.00
46836;BME280;32573;51.290;6.926;2024-03-22T10:47:18;100229.22;;;14.85;100.00
46836;BME280;32573;51.290;6.926;2024-03-22T10:49:58;100237.16;;;14.86;100.00
46836;BME280;32573;51.290;6.926;2024-03-22T10:52:33;100234.50;;;14.86;100.00
46836;BME280;32573;51.290;6.926;2024-03-22T10:55:08;100230.13;;;14.85;100.00
46836;BME280;32573;51.290;6.926;2024-03-22T10:57:40;100224.84;;;14.85;100.00
46836;BME280;32573;51.290;6.926;2024-03-22T11:00:15;100216.94;;;14.87;100.00
46836;BME280;32573;51.290;6.926;2024-03-22T11:02:43;100211.69;;;14.88;100.00
46836;BME280;32573;51.290;6.926;2024-03-22T11:05:16;100223.16;;;14.91;100.00
46836;BME280;32573;51.290;6.926;2024-03-22T11:07:43;100212.63;;;14.94;100.00
46836;BME280;32573;51.290;6.926;2024-03-22T11:10:14;100202.09;;;14.94;100.00
46836;BME280;32573;51.290;6.926;2024-03-22T11:12:46;100205.66;;;14.99;100.00
46836;BME280;32573;51.290;6.926;2024-03-22T11:15:20;100204.78;;;14.98;100.00
46836;BME280;32573;51.290;6.926;2024-03-22T11:17:48;100206.56;;;15.02;100.00
46836;BME280;32573;51.290;6.926;2024-03-22T11:20:16;100200.50;;;15.08;100.00
46836;BME280;32573;51.290;6.926;2024-03-22T11:22:43;100181.19;;;15.12;100.00
46836;BME280;32573;51.290;6.926;2024-03-22T11:25:11;100185.66;;;15.18;100.00
46836;BME280;32573;51.290;6.926;2024-03-22T11:27:38;100196.22;;;15.21;100.00
46836;BME280;32573;51.290;6.926;2024-03-22T11:30:09;100183.94;;;15.24;100.00
46836;BME280;32573;51.290;6.926;2024-03-22T11:32:37;100205.03;;;15.27;100.00
46836;BME280;32573;51.290;6.926;2024-03-22T11:35:10;100190.16;;;15.31;100.00
46836;BME280;32573;51.290;6.926;2024-03-22T11:37:38;100176.13;;;15.35;100.00
46836;BME280;32573;51.290;6.926;2024-03-22T11:40:10;100178.75;;;15.37;100.00
46836;BME280;32573;51.290;6.926;2024-03-22T11:42:41;100187.56;;;15.37;100.00
46836;BME280;32573;51.290;6.926;2024-03-22T11:45:16;100170.84;;;15.37;100.00
46836;BME280;32573;51.290;6.926;2024-03-22T11:47:46;100180.53;;;15.36;100.00
46836;BME280;32573;51.290;6.926;2024-03-22T11:50:14;100190.19;;;15.36;100.00
46836;BME280;32573;51.290;6.926;2024-03-22T11:52:43;100190.19;;;15.36;100.00
46836;BME280;32573;51.290;6.926;2024-03-22T11:55:14;100192.84;;;15.36;100.00
46836;BME280;32573;51.290;6.926;2024-03-22T11:57:41;100183.19;;;15.38;100.00
46836;BME280;32573;51.290;6.926;2024-03-22T12:00:10;100194.59;;;15.37;100.00
46836;BME280;32573;51.290;6.926;2024-03-22T12:02:41;100183.13;;;15.35;100.00
46836;BME280;32573;51.290;6.926;2024-03-22T12:05:13;100174.34;;;15.32;100.00
46836;BME280;32573;51.290;6.926;2024-03-22T12:07:51;100178.72;;;15.30;100.00
46836;BME280;32573;51.290;6.926;2024-03-22T12:10:20;100165.56;;;15.34;100.00
46836;BME280;32573;51.290;6.926;2024-03-22T12:12:48;100183.19;;;15.38;100.00
46836;BME280;32573;51.290;6.926;2024-03-22T12:15:17;100165.56;;;15.37;100.00
46836;BME280;32573;51.290;6.926;2024-03-22T12:17:47;100172.63;;;15.36;100.00
46836;BME280;32573;51.290;6.926;2024-03-22T12:20:18;100168.22;;;15.37;100.00
46836;BME280;32573;51.290;6.926;2024-03-22T12:22:46;100163.81;;;15.36;100.00
46836;BME280;32573;51.290;6.926;2024-03-22T12:25:18;100165.56;;;15.34;100.00
46836;BME280;32573;51.290;6.926;2024-03-22T12:27:46;100162.03;;;15.31;100.00
46836;BME280;32573;51.290;6.926;2024-03-22T12:30:15;100163.75;;;15.29;100.00
46836;BME280;32573;51.290;6.926;2024-03-22T12:32:42;100154.94;;;15.27;100.00
46836;BME280;32573;51.290;6.926;2024-03-22T12:35:10;100153.19;;;15.26;100.00
46836;BME280;32573;51.290;6.926;2024-03-22T12:37:39;100169.00;;;15.26;100.00
46836;BME280;32573;51.290;6.926;2024-03-22T12:40:07;100148.78;;;15.27;100.00
46836;BME280;32573;51.290;6.926;2024-03-22T12:42:36;100143.50;;;15.27;100.00
46836;BME280;32573;51.290;6.926;2024-03-22T12:45:04;100132.09;;;15.26;100.00
46836;BME280;32573;51.290;6.926;2024-03-22T12:47:35;100132.09;;;15.26;100.00